Terminal Aerodrome Forecast
Issued by NWS

Home | Current Version | Previous Version | Graphics & Text | Print | Product List | Glossary On
Versions: 1 2 3 4 5 6 7 8 9 10 11 12 13 14 15
000
FTUS43 KMPX 211749
TAFRWF
TAF
KRWF 211749Z 2118/2218 16013G21KT P6SM FEW120
     FM212300 16007KT P6SM SCT050 BKN120
     FM220500 24005KT P6SM SCT120
     FM220800 32005KT P6SM SCT120
     FM221700 02007KT 5SM -SHRA BR OVC070=

USA.gov is the U.S. government's official web portal to all federal, state and local government web resources and services.